Okhotsk, Russia
Current Conditions -  °F | °C
As of 1:30 PM on Sunday 21 Dec 2014 (Local Time) from UHMM Reporting Station
Scattered Clouds Scattered Clouds  
Wind Chill: -22°   Ceiling: Unl
Heat Index: -22°   Visibility: 6mi
Dew Point: -29°   Wind: 2mph
Humidity: 69%   Direction: 60°ENE
Pressure: 29.85"   Gusts: NA
Location:  59.38°N, 143.3°E
Report Text: UHMM 210330Z 06001MPS 9999 FEW046 SCT100 M30/M34 Q1011 NOSIGRMK QFE744 88920550
Loading
Personal Weather Stations






























Interactive Weather Map New forecast layout! Learn more

10-Day Weather Forecast

Advertisements
Track Severe Weather on mobile